sensor_id;sensor_type;location;lat;lon;timestamp;P1;durP1;ratioP1;P2;durP2;ratioP2
20910;SDS011;10615;42.702;23.314;2023-05-10T00:00:15;4.93;;;4.43;;
20910;SDS011;10615;42.702;23.314;2023-05-10T00:01:16;4.80;;;4.30;;
20910;SDS011;10615;42.702;23.314;2023-05-10T00:02:16;4.60;;;4.20;;
20910;SDS011;10615;42.702;23.314;2023-05-10T00:03:17;4.78;;;4.38;;
20910;SDS011;10615;42.702;23.314;2023-05-10T00:04:18;5.20;;;4.70;;
20910;SDS011;10615;42.702;23.314;2023-05-10T00:05:18;6.70;;;4.55;;
20910;SDS011;10615;42.702;23.314;2023-05-10T00:06:19;8.30;;;4.60;;
20910;SDS011;10615;42.702;23.314;2023-05-10T00:07:20;5.20;;;4.78;;
20910;SDS011;10615;42.702;23.314;2023-05-10T00:08:21;5.97;;;4.80;;
20910;SDS011;10615;42.702;23.314;2023-05-10T00:09:21;5.70;;;5.20;;
20910;SDS011;10615;42.702;23.314;2023-05-10T00:10:22;5.55;;;5.05;;
20910;SDS011;10615;42.702;23.314;2023-05-10T00:11:23;6.65;;;5.50;;
20910;SDS011;10615;42.702;23.314;2023-05-10T00:12:24;6.43;;;5.82;;
20910;SDS011;10615;42.702;23.314;2023-05-10T00:13:24;6.97;;;6.00;;
20910;SDS011;10615;42.702;23.314;2023-05-10T00:14:25;6.90;;;6.20;;
20910;SDS011;10615;42.702;23.314;2023-05-10T00:15:25;6.88;;;6.18;;
20910;SDS011;10615;42.702;23.314;2023-05-10T00:16:26;8.02;;;7.22;;
20910;SDS011;10615;42.702;23.314;2023-05-10T00:17:27;7.18;;;6.45;;
20910;SDS011;10615;42.702;23.314;2023-05-10T00:18:27;8.18;;;7.38;;
20910;SDS011;10615;42.702;23.314;2023-05-10T00:19:28;8.57;;;7.78;;
20910;SDS011;10615;42.702;23.314;2023-05-10T00:20:29;8.57;;;7.55;;
20910;SDS011;10615;42.702;23.314;2023-05-10T00:21:29;9.93;;;8.23;;
20910;SDS011;10615;42.702;23.314;2023-05-10T00:22:30;8.50;;;7.60;;
20910;SDS011;10615;42.702;23.314;2023-05-10T00:23:31;9.10;;;8.00;;
20910;SDS011;10615;42.702;23.314;2023-05-10T00:24:32;8.57;;;7.78;;
20910;SDS011;10615;42.702;23.314;2023-05-10T00:25:32;8.55;;;7.72;;
20910;SDS011;10615;42.702;23.314;2023-05-10T00:26:33;9.15;;;7.63;;
20910;SDS011;10615;42.702;23.314;2023-05-10T00:27:34;9.32;;;8.43;;
20910;SDS011;10615;42.702;23.314;2023-05-10T00:28:35;9.13;;;8.13;;
20910;SDS011;10615;42.702;23.314;2023-05-10T00:29:35;7.90;;;7.20;;
20910;SDS011;10615;42.702;23.314;2023-05-10T00:30:36;8.15;;;7.30;;
20910;SDS011;10615;42.702;23.314;2023-05-10T00:31:37;8.80;;;7.97;;
20910;SDS011;10615;42.702;23.314;2023-05-10T00:32:37;8.77;;;7.88;;
20910;SDS011;10615;42.702;23.314;2023-05-10T00:33:38;9.50;;;8.50;;
20910;SDS011;10615;42.702;23.314;2023-05-10T00:34:39;12.55;;;8.13;;
20910;SDS011;10615;42.702;23.314;2023-05-10T00:35:40;9.60;;;8.70;;
20910;SDS011;10615;42.702;23.314;2023-05-10T00:36:41;9.02;;;8.15;;
20910;SDS011;10615;42.702;23.314;2023-05-10T00:37:41;9.63;;;8.43;;
20910;SDS011;10615;42.702;23.314;2023-05-10T00:38:42;9.55;;;8.55;;
20910;SDS011;10615;42.702;23.314;2023-05-10T00:39:43;9.65;;;8.75;;
20910;SDS011;10615;42.702;23.314;2023-05-10T00:40:43;8.95;;;7.65;;
20910;SDS011;10615;42.702;23.314;2023-05-10T00:41:44;12.15;;;8.23;;
20910;SDS011;10615;42.702;23.314;2023-05-10T00:42:45;9.27;;;8.23;;
20910;SDS011;10615;42.702;23.314;2023-05-10T00:43:45;9.32;;;8.32;;
20910;SDS011;10615;42.702;23.314;2023-05-10T00:44:46;9.63;;;8.63;;
20910;SDS011;10615;42.702;23.314;2023-05-10T00:45:47;9.35;;;8.45;;
20910;SDS011;10615;42.702;23.314;2023-05-10T00:46:48;8.63;;;7.55;;
20910;SDS011;10615;42.702;23.314;2023-05-10T00:47:49;8.52;;;7.72;;
20910;SDS011;10615;42.702;23.314;2023-05-10T00:48:52;8.85;;;8.05;;
20910;SDS011;10615;42.702;23.314;2023-05-10T00:49:53;9.35;;;8.45;;
20910;SDS011;10615;42.702;23.314;2023-05-10T00:50:54;9.00;;;8.20;;
20910;SDS011;10615;42.702;23.314;2023-05-10T00:51:54;9.98;;;8.50;;
20910;SDS011;10615;42.702;23.314;2023-05-10T00:52:55;8.95;;;8.05;;
20910;SDS011;10615;42.702;23.314;2023-05-10T00:53:57;8.90;;;8.00;;
20910;SDS011;10615;42.702;23.314;2023-05-10T00:54:58;9.82;;;8.55;;
20910;SDS011;10615;42.702;23.314;2023-05-10T00:56:00;9.90;;;8.90;;
20910;SDS011;10615;42.702;23.314;2023-05-10T00:57:03;9.45;;;8.60;;
20910;SDS011;10615;42.702;23.314;2023-05-10T00:58:04;9.85;;;8.88;;
20910;SDS011;10615;42.702;23.314;2023-05-10T00:59:05;9.82;;;8.80;;
20910;SDS011;10615;42.702;23.314;2023-05-10T01:00:05;9.38;;;8.48;;
20910;SDS011;10615;42.702;23.314;2023-05-10T01:01:07;9.90;;;8.77;;
20910;SDS011;10615;42.702;23.314;2023-05-10T01:02:09;9.48;;;8.57;;
20910;SDS011;10615;42.702;23.314;2023-05-10T01:03:10;9.10;;;8.30;;
20910;SDS011;10615;42.702;23.314;2023-05-10T01:04:11;9.90;;;8.90;;
20910;SDS011;10615;42.702;23.314;2023-05-10T01:05:13;8.88;;;7.85;;
20910;SDS011;10615;42.702;23.314;2023-05-10T01:06:14;8.95;;;8.15;;
20910;SDS011;10615;42.702;23.314;2023-05-10T01:07:15;9.52;;;8.73;;
20910;SDS011;10615;42.702;23.314;2023-05-10T01:08:16;8.68;;;7.88;;
20910;SDS011;10615;42.702;23.314;2023-05-10T01:09:18;9.32;;;8.43;;
20910;SDS011;10615;42.702;23.314;2023-05-10T01:10:19;9.40;;;8.57;;
20910;SDS011;10615;42.702;23.314;2023-05-10T01:11:20;9.13;;;8.10;;
20910;SDS011;10615;42.702;23.314;2023-05-10T01:12:21;8.98;;;8.18;;
20910;SDS011;10615;42.702;23.314;2023-05-10T01:14:37;9.48;;;8.52;;
20910;SDS011;10615;42.702;23.314;2023-05-10T01:15:38;9.77;;;8.88;;
20910;SDS011;10615;42.702;23.314;2023-05-10T01:16:40;9.52;;;8.63;;
20910;SDS011;10615;42.702;23.314;2023-05-10T01:17:42;8.88;;;8.10;;
20910;SDS011;10615;42.702;23.314;2023-05-10T01:18:45;8.68;;;7.90;;
20910;SDS011;10615;42.702;23.314;2023-05-10T01:19:45;9.07;;;8.18;;
20910;SDS011;10615;42.702;23.314;2023-05-10T01:20:46;8.45;;;7.63;;
20910;SDS011;10615;42.702;23.314;2023-05-10T01:24:09;8.90;;;8.00;;
20910;SDS011;10615;42.702;23.314;2023-05-10T01:34:16;7.57;;;6.88;;
20910;SDS011;10615;42.702;23.314;2023-05-10T01:35:31;7.57;;;6.80;;
20910;SDS011;10615;42.702;23.314;2023-05-10T01:36:51;6.93;;;6.22;;
20910;SDS011;10615;42.702;23.314;2023-05-10T01:39:30;7.03;;;6.32;;
20910;SDS011;10615;42.702;23.314;2023-05-10T01:40:42;7.80;;;6.95;;
20910;SDS011;10615;42.702;23.314;2023-05-10T01:43:24;7.57;;;6.32;;
20910;SDS011;10615;42.702;23.314;2023-05-10T01:44:35;8.30;;;6.00;;
20910;SDS011;10615;42.702;23.314;2023-05-10T01:45:53;7.40;;;6.70;;
20910;SDS011;10615;42.702;23.314;2023-05-10T01:47:17;7.38;;;6.60;;
20910;SDS011;10615;42.702;23.314;2023-05-10T01:48:30;7.65;;;6.95;;
20910;SDS011;10615;42.702;23.314;2023-05-10T01:49:37;7.20;;;6.60;;
20910;SDS011;10615;42.702;23.314;2023-05-10T01:50:43;7.22;;;6.63;;
20910;SDS011;10615;42.702;23.314;2023-05-10T01:51:47;6.82;;;6.05;;
20910;SDS011;10615;42.702;23.314;2023-05-10T01:52:55;6.40;;;5.90;;
20910;SDS011;10615;42.702;23.314;2023-05-10T01:53:59;6.75;;;6.15;;
20910;SDS011;10615;42.702;23.314;2023-05-10T01:55:02;7.03;;;6.32;;
20910;SDS011;10615;42.702;23.314;2023-05-10T01:56:06;6.40;;;5.80;;
20910;SDS011;10615;42.702;23.314;2023-05-10T01:57:08;6.80;;;6.03;;
20910;SDS011;10615;42.702;23.314;2023-05-10T01:58:17;6.68;;;6.07;;
20910;SDS011;10615;42.702;23.314;2023-05-10T01:59:28;6.43;;;5.82;;
20910;SDS011;10615;42.702;23.314;2023-05-10T02:00:31;7.82;;;6.25;;
20910;SDS011;10615;42.702;23.314;2023-05-10T02:01:34;6.47;;;5.75;;
20910;SDS011;10615;42.702;23.314;2023-05-10T02:02:39;6.55;;;5.95;;
20910;SDS011;10615;42.702;23.314;2023-05-10T02:03:42;6.20;;;5.70;;
20910;SDS011;10615;42.702;23.314;2023-05-10T02:04:43;7.00;;;6.28;;
20910;SDS011;10615;42.702;23.314;2023-05-10T02:05:46;7.20;;;6.60;;
20910;SDS011;10615;42.702;23.314;2023-05-10T02:06:49;7.25;;;6.55;;
20910;SDS011;10615;42.702;23.314;2023-05-10T02:07:51;6.78;;;6.18;;
20910;SDS011;10615;42.702;23.314;2023-05-10T02:08:52;6.97;;;6.38;;
20910;SDS011;10615;42.702;23.314;2023-05-10T02:09:54;7.00;;;6.40;;
20910;SDS011;10615;42.702;23.314;2023-05-10T02:10:56;6.72;;;6.13;;
20910;SDS011;10615;42.702;23.314;2023-05-10T02:11:58;6.32;;;5.72;;
20910;SDS011;10615;42.702;23.314;2023-05-10T02:13:02;7.15;;;5.82;;
20910;SDS011;10615;42.702;23.314;2023-05-10T02:14:04;6.03;;;5.40;;
20910;SDS011;10615;42.702;23.314;2023-05-10T02:15:07;6.95;;;6.28;;
20910;SDS011;10615;42.702;23.314;2023-05-10T02:16:10;6.30;;;5.80;;
20910;SDS011;10615;42.702;23.314;2023-05-10T02:17:13;6.55;;;5.95;;
20910;SDS011;10615;42.702;23.314;2023-05-10T02:18:15;6.80;;;6.13;;
20910;SDS011;10615;42.702;23.314;2023-05-10T02:19:16;6.70;;;6.10;;
20910;SDS011;10615;42.702;23.314;2023-05-10T02:20:19;6.43;;;5.82;;
20910;SDS011;10615;42.702;23.314;2023-05-10T02:21:21;6.25;;;5.65;;
20910;SDS011;10615;42.702;23.314;2023-05-10T02:22:24;6.32;;;5.72;;
20910;SDS011;10615;42.702;23.314;2023-05-10T02:23:27;6.32;;;5.72;;
20910;SDS011;10615;42.702;23.314;2023-05-10T02:24:29;6.32;;;5.82;;
20910;SDS011;10615;42.702;23.314;2023-05-10T02:25:32;5.95;;;5.35;;
20910;SDS011;10615;42.702;23.314;2023-05-10T02:26:33;6.03;;;5.53;;
20910;SDS011;10615;42.702;23.314;2023-05-10T02:27:35;5.93;;;5.00;;
20910;SDS011;10615;42.702;23.314;2023-05-10T02:28:37;6.00;;;5.28;;
20910;SDS011;10615;42.702;23.314;2023-05-10T02:29:38;5.95;;;4.63;;
20910;SDS011;10615;42.702;23.314;2023-05-10T02:30:39;7.18;;;4.90;;
20910;SDS011;10615;42.702;23.314;2023-05-10T02:31:40;6.43;;;5.00;;
20910;SDS011;10615;42.702;23.314;2023-05-10T02:32:43;5.50;;;5.00;;
20910;SDS011;10615;42.702;23.314;2023-05-10T02:33:45;5.35;;;4.60;;
20910;SDS011;10615;42.702;23.314;2023-05-10T02:34:47;5.22;;;4.70;;
20910;SDS011;10615;42.702;23.314;2023-05-10T02:35:51;6.63;;;4.53;;
20910;SDS011;10615;42.702;23.314;2023-05-10T02:36:53;4.85;;;4.45;;
20910;SDS011;10615;42.702;23.314;2023-05-10T02:37:56;5.30;;;4.80;;
20910;SDS011;10615;42.702;23.314;2023-05-10T02:38:58;5.78;;;4.70;;
20910;SDS011;10615;42.702;23.314;2023-05-10T02:40:01;6.50;;;4.80;;
20910;SDS011;10615;42.702;23.314;2023-05-10T02:41:03;7.47;;;4.68;;
20910;SDS011;10615;42.702;23.314;2023-05-10T02:42:05;4.50;;;4.10;;
20910;SDS011;10615;42.702;23.314;2023-05-10T02:43:06;6.05;;;4.70;;
20910;SDS011;10615;42.702;23.314;2023-05-10T02:44:12;5.10;;;4.60;;
20910;SDS011;10615;42.702;23.314;2023-05-10T02:45:18;5.75;;;4.85;;
20910;SDS011;10615;42.702;23.314;2023-05-10T02:46:21;6.22;;;4.63;;
20910;SDS011;10615;42.702;23.314;2023-05-10T02:47:23;5.68;;;4.35;;
20910;SDS011;10615;42.702;23.314;2023-05-10T02:48:23;5.30;;;4.70;;
20910;SDS011;10615;42.702;23.314;2023-05-10T02:49:24;7.03;;;5.15;;
20910;SDS011;10615;42.702;23.314;2023-05-10T02:50:28;5.18;;;4.50;;
20910;SDS011;10615;42.702;23.314;2023-05-10T02:51:32;7.20;;;5.10;;
20910;SDS011;10615;42.702;23.314;2023-05-10T02:52:39;6.97;;;5.00;;
20910;SDS011;10615;42.702;23.314;2023-05-10T02:53:41;6.65;;;4.90;;
20910;SDS011;10615;42.702;23.314;2023-05-10T02:54:45;6.55;;;5.15;;
20910;SDS011;10615;42.702;23.314;2023-05-10T02:55:51;5.95;;;4.80;;
20910;SDS011;10615;42.702;23.314;2023-05-10T02:56:55;7.25;;;5.40;;
20910;SDS011;10615;42.702;23.314;2023-05-10T02:58:00;6.10;;;5.32;;
20910;SDS011;10615;42.702;23.314;2023-05-10T02:59:01;6.95;;;5.05;;
20910;SDS011;10615;42.702;23.314;2023-05-10T03:00:02;5.65;;;4.90;;
20910;SDS011;10615;42.702;23.314;2023-05-10T03:01:03;9.18;;;5.10;;
20910;SDS011;10615;42.702;23.314;2023-05-10T03:02:04;6.18;;;5.13;;
20910;SDS011;10615;42.702;23.314;2023-05-10T03:03:05;6.72;;;5.13;;
20910;SDS011;10615;42.702;23.314;2023-05-10T03:04:06;5.88;;;4.95;;
20910;SDS011;10615;42.702;23.314;2023-05-10T03:05:07;5.40;;;4.78;;
20910;SDS011;10615;42.702;23.314;2023-05-10T03:06:08;6.13;;;4.97;;
20910;SDS011;10615;42.702;23.314;2023-05-10T03:07:09;6.05;;;4.93;;
20910;SDS011;10615;42.702;23.314;2023-05-10T03:08:10;6.38;;;4.95;;
20910;SDS011;10615;42.702;23.314;2023-05-10T03:09:11;10.00;;;5.50;;
20910;SDS011;10615;42.702;23.314;2023-05-10T03:10:15;6.53;;;5.07;;
20910;SDS011;10615;42.702;23.314;2023-05-10T03:16:22;7.85;;;4.72;;
20910;SDS011;10615;42.702;23.314;2023-05-10T03:18:50;8.18;;;6.28;;
20910;SDS011;10615;42.702;23.314;2023-05-10T03:20:06;6.53;;;5.03;;
20910;SDS011;10615;42.702;23.314;2023-05-10T03:21:11;7.32;;;5.20;;
20910;SDS011;10615;42.702;23.314;2023-05-10T03:22:16;8.02;;;5.50;;
20910;SDS011;10615;42.702;23.314;2023-05-10T03:25:00;7.43;;;6.05;;
20910;SDS011;10615;42.702;23.314;2023-05-10T03:26:05;6.15;;;5.43;;
20910;SDS011;10615;42.702;23.314;2023-05-10T03:27:08;6.18;;;5.57;;
20910;SDS011;10615;42.702;23.314;2023-05-10T03:28:09;6.28;;;5.43;;
20910;SDS011;10615;42.702;23.314;2023-05-10T03:29:12;6.70;;;5.78;;
20910;SDS011;10615;42.702;23.314;2023-05-10T03:30:14;8.02;;;6.03;;
20910;SDS011;10615;42.702;23.314;2023-05-10T03:31:16;6.05;;;5.18;;
20910;SDS011;10615;42.702;23.314;2023-05-10T03:32:18;11.40;;;6.28;;
20910;SDS011;10615;42.702;23.314;2023-05-10T03:33:18;11.00;;;7.95;;
20910;SDS011;10615;42.702;23.314;2023-05-10T03:34:23;9.65;;;6.57;;
20910;SDS011;10615;42.702;23.314;2023-05-10T03:35:24;9.07;;;6.50;;
20910;SDS011;10615;42.702;23.314;2023-05-10T03:36:25;10.88;;;7.20;;
20910;SDS011;10615;42.702;23.314;2023-05-10T03:37:26;9.23;;;6.70;;
20910;SDS011;10615;42.702;23.314;2023-05-10T03:38:27;12.75;;;8.18;;
20910;SDS011;10615;42.702;23.314;2023-05-10T03:39:27;12.68;;;7.82;;
20910;SDS011;10615;42.702;23.314;2023-05-10T03:40:28;11.57;;;7.28;;
20910;SDS011;10615;42.702;23.314;2023-05-10T03:41:31;10.15;;;7.55;;
20910;SDS011;10615;42.702;23.314;2023-05-10T03:42:32;8.35;;;6.13;;
20910;SDS011;10615;42.702;23.314;2023-05-10T03:43:32;8.75;;;7.60;;
20910;SDS011;10615;42.702;23.314;2023-05-10T03:44:33;8.55;;;5.90;;
20910;SDS011;10615;42.702;23.314;2023-05-10T03:45:34;11.65;;;7.13;;
20910;SDS011;10615;42.702;23.314;2023-05-10T03:46:34;8.70;;;7.07;;
20910;SDS011;10615;42.702;23.314;2023-05-10T03:47:35;8.98;;;6.07;;
20910;SDS011;10615;42.702;23.314;2023-05-10T03:48:36;7.70;;;6.82;;
20910;SDS011;10615;42.702;23.314;2023-05-10T03:49:36;9.98;;;6.13;;
20910;SDS011;10615;42.702;23.314;2023-05-10T03:50:37;8.85;;;6.97;;
20910;SDS011;10615;42.702;23.314;2023-05-10T03:51:37;10.48;;;6.68;;
20910;SDS011;10615;42.702;23.314;2023-05-10T03:52:38;8.70;;;6.07;;
20910;SDS011;10615;42.702;23.314;2023-05-10T03:53:39;9.18;;;6.25;;
20910;SDS011;10615;42.702;23.314;2023-05-10T03:54:39;7.82;;;5.50;;
20910;SDS011;10615;42.702;23.314;2023-05-10T03:55:40;7.13;;;5.45;;
20910;SDS011;10615;42.702;23.314;2023-05-10T03:56:41;9.52;;;7.40;;
20910;SDS011;10615;42.702;23.314;2023-05-10T03:57:42;13.45;;;6.95;;
20910;SDS011;10615;42.702;23.314;2023-05-10T03:58:42;11.05;;;6.82;;
20910;SDS011;10615;42.702;23.314;2023-05-10T03:59:43;10.40;;;7.97;;
20910;SDS011;10615;42.702;23.314;2023-05-10T04:00:44;7.80;;;6.78;;
20910;SDS011;10615;42.702;23.314;2023-05-10T04:01:46;8.57;;;7.53;;
20910;SDS011;10615;42.702;23.314;2023-05-10T04:02:46;13.95;;;12.50;;
20910;SDS011;10615;42.702;23.314;2023-05-10T04:03:49;9.00;;;6.22;;
20910;SDS011;10615;42.702;23.314;2023-05-10T04:04:49;9.20;;;7.13;;
20910;SDS011;10615;42.702;23.314;2023-05-10T04:05:57;10.18;;;7.95;;
20910;SDS011;10615;42.702;23.314;2023-05-10T04:07:01;12.27;;;7.88;;
20910;SDS011;10615;42.702;23.314;2023-05-10T04:08:03;9.27;;;8.05;;
20910;SDS011;10615;42.702;23.314;2023-05-10T04:09:04;9.30;;;8.23;;
20910;SDS011;10615;42.702;23.314;2023-05-10T04:10:04;9.18;;;7.70;;
20910;SDS011;10615;42.702;23.314;2023-05-10T04:11:06;10.40;;;7.80;;
20910;SDS011;10615;42.702;23.314;2023-05-10T04:12:08;9.13;;;7.88;;
20910;SDS011;10615;42.702;23.314;2023-05-10T04:13:09;8.68;;;7.63;;
20910;SDS011;10615;42.702;23.314;2023-05-10T04:14:09;10.23;;;6.88;;
20910;SDS011;10615;42.702;23.314;2023-05-10T04:15:10;7.57;;;6.88;;
20910;SDS011;10615;42.702;23.314;2023-05-10T04:16:11;7.78;;;6.93;;
20910;SDS011;10615;42.702;23.314;2023-05-10T04:17:11;8.65;;;7.38;;
20910;SDS011;10615;42.702;23.314;2023-05-10T04:18:12;9.63;;;7.25;;
20910;SDS011;10615;42.702;23.314;2023-05-10T04:19:12;9.00;;;7.18;;
20910;SDS011;10615;42.702;23.314;2023-05-10T04:20:13;8.27;;;6.13;;
20910;SDS011;10615;42.702;23.314;2023-05-10T04:21:14;8.27;;;6.10;;
20910;SDS011;10615;42.702;23.314;2023-05-10T04:22:15;7.32;;;5.43;;
20910;SDS011;10615;42.702;23.314;2023-05-10T04:23:15;8.30;;;6.70;;
20910;SDS011;10615;42.702;23.314;2023-05-10T04:24:16;11.30;;;6.22;;
20910;SDS011;10615;42.702;23.314;2023-05-10T04:25:17;8.07;;;6.55;;
20910;SDS011;10615;42.702;23.314;2023-05-10T04:26:18;7.85;;;6.13;;
20910;SDS011;10615;42.702;23.314;2023-05-10T04:27:18;10.43;;;6.22;;
20910;SDS011;10615;42.702;23.314;2023-05-10T04:28:19;7.88;;;6.85;;
20910;SDS011;10615;42.702;23.314;2023-05-10T04:29:21;8.18;;;6.95;;
20910;SDS011;10615;42.702;23.314;2023-05-10T04:30:22;9.90;;;6.75;;
20910;SDS011;10615;42.702;23.314;2023-05-10T04:31:23;7.47;;;6.20;;
20910;SDS011;10615;42.702;23.314;2023-05-10T04:32:23;10.00;;;5.60;;
20910;SDS011;10615;42.702;23.314;2023-05-10T04:33:24;11.45;;;5.22;;
20910;SDS011;10615;42.702;23.314;2023-05-10T04:34:25;7.70;;;5.82;;
20910;SDS011;10615;42.702;23.314;2023-05-10T04:35:25;8.05;;;6.00;;
20910;SDS011;10615;42.702;23.314;2023-05-10T04:36:27;10.70;;;5.60;;
20910;SDS011;10615;42.702;23.314;2023-05-10T04:37:27;6.25;;;5.47;;
20910;SDS011;10615;42.702;23.314;2023-05-10T04:38:28;9.02;;;5.18;;
20910;SDS011;10615;42.702;23.314;2023-05-10T04:39:29;6.95;;;5.60;;
20910;SDS011;10615;42.702;23.314;2023-05-10T04:40:29;10.57;;;5.78;;
20910;SDS011;10615;42.702;23.314;2023-05-10T04:41:30;6.78;;;5.25;;
20910;SDS011;10615;42.702;23.314;2023-05-10T04:42:31;8.10;;;6.10;;
20910;SDS011;10615;42.702;23.314;2023-05-10T04:43:32;7.07;;;5.57;;
20910;SDS011;10615;42.702;23.314;2023-05-10T04:44:33;7.72;;;5.60;;
20910;SDS011;10615;42.702;23.314;2023-05-10T04:45:33;5.85;;;5.22;;
20910;SDS011;10615;42.702;23.314;2023-05-10T04:46:34;6.95;;;5.35;;
20910;SDS011;10615;42.702;23.314;2023-05-10T04:47:35;7.65;;;5.30;;
20910;SDS011;10615;42.702;23.314;2023-05-10T04:48:36;6.50;;;5.47;;
20910;SDS011;10615;42.702;23.314;2023-05-10T04:49:37;5.95;;;5.35;;
20910;SDS011;10615;42.702;23.314;2023-05-10T04:50:39;9.52;;;6.22;;
20910;SDS011;10615;42.702;23.314;2023-05-10T04:51:40;10.25;;;8.68;;
20910;SDS011;10615;42.702;23.314;2023-05-10T04:52:40;7.18;;;5.85;;
20910;SDS011;10615;42.702;23.314;2023-05-10T04:53:41;8.05;;;6.03;;
20910;SDS011;10615;42.702;23.314;2023-05-10T04:54:41;7.57;;;5.97;;
20910;SDS011;10615;42.702;23.314;2023-05-10T04:55:42;6.93;;;5.22;;
20910;SDS011;10615;42.702;23.314;2023-05-10T04:56:43;7.38;;;5.28;;
20910;SDS011;10615;42.702;23.314;2023-05-10T04:57:43;7.88;;;5.50;;
20910;SDS011;10615;42.702;23.314;2023-05-10T04:58:44;7.45;;;5.90;;
20910;SDS011;10615;42.702;23.314;2023-05-10T04:59:45;6.57;;;5.95;;
20910;SDS011;10615;42.702;23.314;2023-05-10T05:00:47;6.63;;;5.88;;
20910;SDS011;10615;42.702;23.314;2023-05-10T05:01:47;7.57;;;5.70;;
20910;SDS011;10615;42.702;23.314;2023-05-10T05:02:48;6.47;;;5.80;;
20910;SDS011;10615;42.702;23.314;2023-05-10T05:03:49;7.50;;;5.60;;
20910;SDS011;10615;42.702;23.314;2023-05-10T05:04:50;6.72;;;5.97;;
20910;SDS011;10615;42.702;23.314;2023-05-10T05:05:50;8.77;;;6.53;;
20910;SDS011;10615;42.702;23.314;2023-05-10T05:06:51;8.85;;;6.68;;
20910;SDS011;10615;42.702;23.314;2023-05-10T05:07:52;10.10;;;6.35;;
20910;SDS011;10615;42.702;23.314;2023-05-10T05:08:52;8.07;;;6.20;;
20910;SDS011;10615;42.702;23.314;2023-05-10T05:09:53;7.82;;;6.57;;
20910;SDS011;10615;42.702;23.314;2023-05-10T05:10:54;12.45;;;6.38;;
20910;SDS011;10615;42.702;23.314;2023-05-10T05:11:54;7.35;;;5.55;;
20910;SDS011;10615;42.702;23.314;2023-05-10T05:12:55;7.82;;;6.45;;
20910;SDS011;10615;42.702;23.314;2023-05-10T05:13:56;8.98;;;6.30;;
20910;SDS011;10615;42.702;23.314;2023-05-10T05:14:58;11.65;;;6.80;;
20910;SDS011;10615;42.702;23.314;2023-05-10T05:16:00;9.00;;;6.65;;
20910;SDS011;10615;42.702;23.314;2023-05-10T05:17:02;10.23;;;6.47;;
20910;SDS011;10615;42.702;23.314;2023-05-10T05:18:03;6.97;;;5.72;;
20910;SDS011;10615;42.702;23.314;2023-05-10T05:19:04;6.28;;;5.65;;
20910;SDS011;10615;42.702;23.314;2023-05-10T05:20:05;12.70;;;7.22;;
20910;SDS011;10615;42.702;23.314;2023-05-10T05:21:15;9.20;;;6.88;;
20910;SDS011;10615;42.702;23.314;2023-05-10T05:22:17;7.65;;;6.60;;
20910;SDS011;10615;42.702;23.314;2023-05-10T05:23:19;8.48;;;6.88;;
20910;SDS011;10615;42.702;23.314;2023-05-10T05:24:20;8.57;;;6.45;;
20910;SDS011;10615;42.702;23.314;2023-05-10T05:25:21;9.38;;;6.63;;
20910;SDS011;10615;42.702;23.314;2023-05-10T05:26:22;9.50;;;6.20;;
20910;SDS011;10615;42.702;23.314;2023-05-10T05:27:22;8.93;;;6.78;;
20910;SDS011;10615;42.702;23.314;2023-05-10T05:28:25;7.95;;;6.78;;
20910;SDS011;10615;42.702;23.314;2023-05-10T05:29:26;8.77;;;7.13;;
20910;SDS011;10615;42.702;23.314;2023-05-10T05:30:27;7.82;;;7.00;;
20910;SDS011;10615;42.702;23.314;2023-05-10T05:31:27;8.65;;;6.65;;
20910;SDS011;10615;42.702;23.314;2023-05-10T05:32:28;8.07;;;6.63;;
20910;SDS011;10615;42.702;23.314;2023-05-10T05:33:30;8.00;;;6.65;;
20910;SDS011;10615;42.702;23.314;2023-05-10T05:34:31;7.65;;;6.63;;
20910;SDS011;10615;42.702;23.314;2023-05-10T05:35:31;11.35;;;7.10;;
20910;SDS011;10615;42.702;23.314;2023-05-10T05:36:35;8.27;;;7.03;;
20910;SDS011;10615;42.702;23.314;2023-05-10T05:37:40;9.13;;;6.68;;
20910;SDS011;10615;42.702;23.314;2023-05-10T05:38:41;8.20;;;7.03;;
20910;SDS011;10615;42.702;23.314;2023-05-10T05:39:43;9.05;;;7.43;;
20910;SDS011;10615;42.702;23.314;2023-05-10T05:40:44;9.73;;;7.40;;
20910;SDS011;10615;42.702;23.314;2023-05-10T05:41:46;8.82;;;7.90;;
20910;SDS011;10615;42.702;23.314;2023-05-10T05:42:46;8.93;;;6.97;;
20910;SDS011;10615;42.702;23.314;2023-05-10T05:43:47;9.88;;;7.80;;
20910;SDS011;10615;42.702;23.314;2023-05-10T05:44:48;10.88;;;8.05;;
20910;SDS011;10615;42.702;23.314;2023-05-10T05:45:48;12.82;;;7.65;;
20910;SDS011;10615;42.702;23.314;2023-05-10T05:46:49;9.75;;;7.75;;
20910;SDS011;10615;42.702;23.314;2023-05-10T05:47:50;10.05;;;7.35;;
20910;SDS011;10615;42.702;23.314;2023-05-10T05:48:51;11.88;;;8.57;;
20910;SDS011;10615;42.702;23.314;2023-05-10T05:49:51;9.30;;;8.13;;
20910;SDS011;10615;42.702;23.314;2023-05-10T05:50:55;8.65;;;7.30;;
20910;SDS011;10615;42.702;23.314;2023-05-10T05:52:03;10.50;;;7.57;;
20910;SDS011;10615;42.702;23.314;2023-05-10T05:53:04;12.25;;;7.97;;
20910;SDS011;10615;42.702;23.314;2023-05-10T05:54:05;11.63;;;7.22;;
20910;SDS011;10615;42.702;23.314;2023-05-10T05:55:06;11.68;;;7.50;;
20910;SDS011;10615;42.702;23.314;2023-05-10T05:56:07;11.50;;;7.57;;
20910;SDS011;10615;42.702;23.314;2023-05-10T05:57:09;8.65;;;7.13;;
20910;SDS011;10615;42.702;23.314;2023-05-10T05:58:09;7.97;;;7.18;;
20910;SDS011;10615;42.702;23.314;2023-05-10T05:59:10;9.93;;;7.22;;
20910;SDS011;10615;42.702;23.314;2023-05-10T06:00:11;8.38;;;7.38;;
20910;SDS011;10615;42.702;23.314;2023-05-10T06:01:13;12.10;;;7.95;;
20910;SDS011;10615;42.702;23.314;2023-05-10T06:02:13;9.85;;;8.00;;
20910;SDS011;10615;42.702;23.314;2023-05-10T06:03:14;9.93;;;7.65;;
20910;SDS011;10615;42.702;23.314;2023-05-10T06:04:15;9.68;;;7.70;;
20910;SDS011;10615;42.702;23.314;2023-05-10T06:05:17;9.27;;;7.45;;
20910;SDS011;10615;42.702;23.314;2023-05-10T06:06:17;8.82;;;6.88;;
20910;SDS011;10615;42.702;23.314;2023-05-10T06:07:18;10.73;;;7.20;;
20910;SDS011;10615;42.702;23.314;2023-05-10T06:08:19;10.93;;;7.65;;
20910;SDS011;10615;42.702;23.314;2023-05-10T06:09:20;8.65;;;7.75;;
20910;SDS011;10615;42.702;23.314;2023-05-10T06:10:21;8.13;;;7.25;;
20910;SDS011;10615;42.702;23.314;2023-05-10T06:11:23;9.10;;;7.07;;
20910;SDS011;10615;42.702;23.314;2023-05-10T06:12:23;8.68;;;7.07;;
20910;SDS011;10615;42.702;23.314;2023-05-10T06:13:24;8.85;;;7.15;;
20910;SDS011;10615;42.702;23.314;2023-05-10T06:14:28;10.18;;;7.75;;
20910;SDS011;10615;42.702;23.314;2023-05-10T06:15:29;10.50;;;7.45;;
20910;SDS011;10615;42.702;23.314;2023-05-10T06:16:30;8.48;;;7.40;;
20910;SDS011;10615;42.702;23.314;2023-05-10T06:17:31;9.88;;;7.97;;
20910;SDS011;10615;42.702;23.314;2023-05-10T06:18:32;9.95;;;7.68;;
20910;SDS011;10615;42.702;23.314;2023-05-10T06:19:33;11.52;;;8.23;;
20910;SDS011;10615;42.702;23.314;2023-05-10T06:20:33;12.07;;;7.78;;
20910;SDS011;10615;42.702;23.314;2023-05-10T06:21:34;9.40;;;7.43;;
20910;SDS011;10615;42.702;23.314;2023-05-10T06:22:35;11.27;;;8.00;;
20910;SDS011;10615;42.702;23.314;2023-05-10T06:23:35;9.70;;;7.85;;
20910;SDS011;10615;42.702;23.314;2023-05-10T06:24:36;9.45;;;7.60;;
20910;SDS011;10615;42.702;23.314;2023-05-10T06:25:37;10.02;;;8.27;;
20910;SDS011;10615;42.702;23.314;2023-05-10T06:26:37;9.45;;;7.95;;
20910;SDS011;10615;42.702;23.314;2023-05-10T06:27:38;11.15;;;8.20;;
20910;SDS011;10615;42.702;23.314;2023-05-10T06:28:39;9.18;;;7.63;;
20910;SDS011;10615;42.702;23.314;2023-05-10T06:29:40;11.57;;;7.57;;
20910;SDS011;10615;42.702;23.314;2023-05-10T06:30:41;9.38;;;7.40;;